createdAt,value
2023-05-17T00:02:30.403Z,11.73
2023-05-17T00:07:32.125Z,15.10
2023-05-17T00:12:35.242Z,13.80
2023-05-17T00:17:38.039Z,14.60
2023-05-17T00:22:40.934Z,14.93
2023-05-17T00:27:44.077Z,11.50
2023-05-17T00:32:47.596Z,15.20
2023-05-17T00:37:49.383Z,14.13
2023-05-17T00:42:52.504Z,16.93
2023-05-17T00:47:54.321Z,12.23
2023-05-17T00:52:56.291Z,10.17
2023-05-17T00:57:59.521Z,13.67
2023-05-17T01:03:01.295Z,11.93
2023-05-17T01:08:03.537Z,12.70
2023-05-17T01:13:10.135Z,8.50
2023-05-17T01:18:17.944Z,12.60
2023-05-17T01:23:28.519Z,12.20
2023-05-17T01:28:31.843Z,7.80
2023-05-17T01:33:33.764Z,10.07
2023-05-17T01:38:35.990Z,11.43
2023-05-17T01:43:41.769Z,9.70
2023-05-17T01:48:45.889Z,9.17
2023-05-17T01:53:48.679Z,14.93
2023-05-17T01:58:51.711Z,9.30
2023-05-17T02:03:53.470Z,10.00
2023-05-17T02:08:55.422Z,15.40
2023-05-17T02:13:59.236Z,13.70
2023-05-17T02:19:01.297Z,12.77
2023-05-17T02:24:03.592Z,16.23
2023-05-17T02:29:06.695Z,12.03
2023-05-17T02:34:08.447Z,9.40
2023-05-17T02:39:10.326Z,14.87
2023-05-17T02:44:14.508Z,12.77
2023-05-17T02:49:16.308Z,12.20
2023-05-17T02:54:18.092Z,20.17
2023-05-17T02:59:21.213Z,18.97
2023-05-17T03:04:23.222Z,20.80
2023-05-17T03:09:25.423Z,14.23
2023-05-17T03:14:28.945Z,14.90
2023-05-17T03:19:30.747Z,25.83
2023-05-17T03:24:32.693Z,14.27
2023-05-17T03:29:36.944Z,30.80
2023-05-17T03:34:38.936Z,21.27
2023-05-17T03:39:40.960Z,12.90
2023-05-17T03:44:44.298Z,10.57
2023-05-17T03:49:46.760Z,14.57
2023-05-17T03:54:49.289Z,13.73
2023-05-17T03:59:54.098Z,20.60
2023-05-17T04:04:56.961Z,20.60
2023-05-17T04:09:59.521Z,18.50
2023-05-17T04:15:06.766Z,11.57
2023-05-17T04:20:11.646Z,25.27
2023-05-17T04:25:13.472Z,29.63
2023-05-17T04:30:17.011Z,17.73
2023-05-17T04:35:19.919Z,24.63
2023-05-17T04:40:25.159Z,22.63
2023-05-17T04:45:28.435Z,15.33
2023-05-17T04:50:30.577Z,18.60
2023-05-17T04:55:32.404Z,20.40
2023-05-17T05:00:36.214Z,23.20
2023-05-17T05:05:39.666Z,20.30
2023-05-17T05:10:41.611Z,16.57
2023-05-17T05:15:45.814Z,23.47
2023-05-17T05:20:48.019Z,25.43
2023-05-17T05:25:49.922Z,24.33
2023-05-17T05:30:58.838Z,19.87
2023-05-17T05:36:01.449Z,25.60
2023-05-17T05:41:03.322Z,16.93
2023-05-17T05:46:07.968Z,18.37
2023-05-17T05:51:10.803Z,15.77
2023-05-17T05:56:15.645Z,20.73
2023-05-17T06:01:18.935Z,17.23
2023-05-17T06:06:20.767Z,18.13
2023-05-17T06:11:24.048Z,21.80
2023-05-17T06:16:29.191Z,22.43
2023-05-17T06:21:31.264Z,22.57
2023-05-17T06:26:32.967Z,16.97
2023-05-17T06:31:36.038Z,14.83
2023-05-17T06:36:38.677Z,9.73
2023-05-17T06:41:40.760Z,13.40
2023-05-17T06:46:43.781Z,10.87
2023-05-17T06:51:45.802Z,13.77
2023-05-17T06:56:47.487Z,10.50
2023-05-17T07:01:50.511Z,19.57
2023-05-17T07:06:52.218Z,17.37
2023-05-17T07:11:53.910Z,12.03
2023-05-17T07:16:56.968Z,15.03
2023-05-17T07:21:58.876Z,16.77
2023-05-17T07:27:00.619Z,13.60
2023-05-17T07:32:04.191Z,17.93
2023-05-17T07:37:05.924Z,26.23
2023-05-17T07:42:07.852Z,22.53
2023-05-17T07:47:10.926Z,12.03
2023-05-17T07:52:12.840Z,17.63
2023-05-17T07:57:14.575Z,23.23
2023-05-17T08:02:17.625Z,14.43
2023-05-17T08:07:19.334Z,28.73
2023-05-17T08:12:21.074Z,11.87
2023-05-17T08:17:24.277Z,13.80
2023-05-17T08:22:26.466Z,10.10
2023-05-17T08:27:30.916Z,18.03
2023-05-17T08:32:34.007Z,9.37
2023-05-17T08:37:35.727Z,9.23
2023-05-17T08:42:37.454Z,10.50
2023-05-17T08:47:40.555Z,11.33
2023-05-17T08:52:44.970Z,8.80
2023-05-17T08:57:47.076Z,9.67
2023-05-17T09:02:50.147Z,20.57
2023-05-17T09:07:52.864Z,12.70
2023-05-17T09:12:54.613Z,15.23
2023-05-17T09:17:58.353Z,24.97
2023-05-17T09:23:00.868Z,16.07
2023-05-17T09:28:02.902Z,11.10
2023-05-17T09:33:09.583Z,11.27
2023-05-17T09:38:11.990Z,14.27
2023-05-17T09:43:14.113Z,15.53
2023-05-17T09:48:17.993Z,15.87
2023-05-17T09:53:24.699Z,11.50
2023-05-17T09:58:26.746Z,12.80
2023-05-17T10:03:31.011Z,11.80
2023-05-17T10:08:33.411Z,9.43
2023-05-17T10:13:37.349Z,16.13
2023-05-17T10:18:40.731Z,9.23
2023-05-17T10:23:44.090Z,11.03
2023-05-17T10:28:46.422Z,7.90
2023-05-17T10:33:50.798Z,7.73
2023-05-17T10:38:52.523Z,17.53
2023-05-17T10:43:54.542Z,7.73
2023-05-17T10:48:58.701Z,10.70
2023-05-17T10:54:04.002Z,17.50
2023-05-17T10:59:19.613Z,10.13
2023-05-17T11:04:24.160Z,5.30
2023-05-17T11:09:26.156Z,10.40
2023-05-17T11:14:27.865Z,8.80
2023-05-17T11:19:31.892Z,16.73
2023-05-17T11:24:33.590Z,13.03
2023-05-17T11:29:35.594Z,8.07
2023-05-17T11:34:39.623Z,11.97
2023-05-17T11:40:03.139Z,9.87
2023-05-17T11:45:05.682Z,11.00
2023-05-17T11:50:09.603Z,9.47
2023-05-17T11:55:13.948Z,10.70
2023-05-17T12:00:17.492Z,5.80
2023-05-17T12:05:22.056Z,9.27
2023-05-17T12:10:23.736Z,4.63
2023-05-17T12:15:25.784Z,6.27
2023-05-17T12:20:30.066Z,8.00
2023-05-17T12:25:32.039Z,7.23
2023-05-17T12:30:33.798Z,9.80
2023-05-17T12:35:36.796Z,8.63
2023-05-17T12:40:40.276Z,11.00
2023-05-17T12:45:43.259Z,8.23
2023-05-17T12:50:48.954Z,7.43
2023-05-17T12:55:50.723Z,8.40
2023-05-17T13:00:59.732Z,9.87
2023-05-17T13:06:04.113Z,10.00
2023-05-17T13:11:07.158Z,8.90
2023-05-17T13:16:08.906Z,5.17
2023-05-17T13:21:11.919Z,12.83
2023-05-17T13:26:13.630Z,6.60
2023-05-17T13:31:15.673Z,5.43
2023-05-17T13:36:18.707Z,10.20
2023-05-17T13:41:20.388Z,9.63
2023-05-17T13:46:22.095Z,8.70
2023-05-17T13:51:28.118Z,7.03
2023-05-17T13:56:29.830Z,6.07
2023-05-17T14:01:31.573Z,7.40
2023-05-17T14:06:34.639Z,6.47
2023-05-17T14:11:36.347Z,5.43
2023-05-17T14:16:38.878Z,7.10
2023-05-17T14:21:41.945Z,8.80
2023-05-17T14:26:44.138Z,7.10
2023-05-17T14:31:46.296Z,4.70
2023-05-17T14:36:49.321Z,8.30
2023-05-17T14:41:51.069Z,11.67
2023-05-17T14:46:52.785Z,11.13
2023-05-17T14:51:56.171Z,7.60
2023-05-17T14:56:58.446Z,6.67
2023-05-17T15:02:00.349Z,8.93
2023-05-17T15:07:03.596Z,13.90
2023-05-17T15:12:06.480Z,8.80
2023-05-17T15:17:08.536Z,4.77
2023-05-17T15:22:11.546Z,5.90
2023-05-17T15:27:16.196Z,4.70
2023-05-17T15:32:17.952Z,5.53
2023-05-17T15:37:21.458Z,4.07
2023-05-17T15:42:23.196Z,7.50
2023-05-17T15:47:38.687Z,7.03
2023-05-17T15:52:47.248Z,5.20
2023-05-17T15:57:48.952Z,7.87
2023-05-17T16:02:50.700Z,6.10
2023-05-17T16:07:53.818Z,6.90
2023-05-17T16:12:55.561Z,4.57
2023-05-17T16:17:57.324Z,6.53
2023-05-17T16:23:00.435Z,7.53
2023-05-17T16:28:02.111Z,6.70
2023-05-17T16:33:04.973Z,9.03
2023-05-17T16:38:09.165Z,10.60
2023-05-17T16:43:15.712Z,7.97
2023-05-17T16:48:17.479Z,4.60
2023-05-17T16:53:20.780Z,10.13
2023-05-17T16:58:22.496Z,6.90
2023-05-17T17:03:24.286Z,7.43
2023-05-17T17:08:27.404Z,7.13
2023-05-17T17:13:29.154Z,6.60
2023-05-17T17:18:30.931Z,6.70
2023-05-17T17:23:33.927Z,7.80
2023-05-17T17:28:35.678Z,8.33
2023-05-17T17:33:37.400Z,7.33
2023-05-17T17:38:40.513Z,8.60
2023-05-17T17:43:43.085Z,11.07
2023-05-17T17:48:44.855Z,7.03
2023-05-17T17:53:48.796Z,7.63
2023-05-17T17:58:53.563Z,14.13
2023-05-17T18:03:55.273Z,7.37
2023-05-17T18:08:58.298Z,6.80
2023-05-17T18:14:02.273Z,8.73
2023-05-17T18:19:04.101Z,11.90
2023-05-17T18:24:08.173Z,6.47
2023-05-17T18:29:09.918Z,8.97
2023-05-17T18:34:11.626Z,6.00
2023-05-17T18:39:14.694Z,10.30
2023-05-17T18:44:17.986Z,8.83
2023-05-17T18:49:21.361Z,6.20
2023-05-17T18:54:24.438Z,5.87
2023-05-17T18:59:26.114Z,10.50
2023-05-17T19:04:30.504Z,7.50
2023-05-17T19:09:35.012Z,15.50
2023-05-17T19:14:38.320Z,10.93
2023-05-17T19:19:40.097Z,15.03
2023-05-17T19:24:43.313Z,8.60
2023-05-17T19:29:45.212Z,10.20
2023-05-17T19:34:46.982Z,5.53
2023-05-17T19:39:50.050Z,9.17
2023-05-17T19:44:51.788Z,8.70
2023-05-17T19:49:53.521Z,11.67
2023-05-17T19:54:56.623Z,4.20
2023-05-17T19:59:58.411Z,10.10
2023-05-17T20:05:02.177Z,11.30
2023-05-17T20:10:06.501Z,9.43
2023-05-17T20:15:09.430Z,8.37
2023-05-17T20:20:11.614Z,8.77
2023-05-17T20:25:14.650Z,10.10
2023-05-17T20:30:16.434Z,7.57
2023-05-17T20:35:18.251Z,9.83
2023-05-17T20:40:21.373Z,11.70
2023-05-17T20:45:23.266Z,8.13
2023-05-17T20:50:25.098Z,12.23
2023-05-17T20:55:28.243Z,8.70
2023-05-17T21:00:30.234Z,9.13
2023-05-17T21:05:35.984Z,12.17
2023-05-17T21:10:40.597Z,9.00
2023-05-17T21:15:42.346Z,21.53
2023-05-17T21:20:44.164Z,10.00
2023-05-17T21:25:48.906Z,13.03
2023-05-17T21:30:51.625Z,9.50
2023-05-17T21:35:53.336Z,11.57
2023-05-17T21:40:56.478Z,8.03
2023-05-17T21:45:58.229Z,11.43
2023-05-17T21:51:00.015Z,8.30
2023-05-17T21:56:03.481Z,8.83
2023-05-17T22:01:05.458Z,7.30
2023-05-17T22:06:07.533Z,12.73
2023-05-17T22:11:11.005Z,10.73
2023-05-17T22:16:13.843Z,5.87
2023-05-17T22:21:15.670Z,6.40
2023-05-17T22:26:19.861Z,10.43
2023-05-17T22:31:22.723Z,7.10
2023-05-17T22:36:26.652Z,7.73
2023-05-17T22:41:29.805Z,11.00
2023-05-17T22:46:31.909Z,11.83
2023-05-17T22:51:35.338Z,12.63
2023-05-17T22:56:38.462Z,14.93
2023-05-17T23:01:40.315Z,13.07
2023-05-17T23:06:42.357Z,11.97
2023-05-17T23:11:45.436Z,17.87
2023-05-17T23:16:47.183Z,11.33
2023-05-17T23:21:49.003Z,6.93
2023-05-17T23:26:52.119Z,7.50
2023-05-17T23:31:53.975Z,12.40
2023-05-17T23:36:55.801Z,8.80
2023-05-17T23:41:59.110Z,7.43
2023-05-17T23:47:00.832Z,8.93
2023-05-17T23:52:03.020Z,9.00
2023-05-17T23:57:06.710Z,9.40
